Flinter Rose — PBUB — position and weather

sailwx.info

Track history (hours):
 
Tides and Currents Weather Stations Pressure Air Temp Water Temp Dewpoint Dewpoint Depression Visibility Wind Speed Wind Dir Waves Ship Positions

Flinter Rose

Last reported at 2014-Nov-25 22:32 UTC. Time now 2014-Nov-26 08:55 UTC.
Position N 37°44' W 009°33'.

Length 101 m; draft 6.5 m.

Type: Cargo ship. MMSI: 246227000.

Date/timePositionNaut miles runAvg speedWind from/ knotsBaromVisibWave heightAir tempDewpointWater temp
2014-Nov-25 22:32N 37°44' W 009°33'1010.4
2014-Nov-25 21:33N 37°34' W 009°30'211 9.0
2014-Nov-24 22:08N 35°58' W 005°36'5 8.5
2014-Nov-24 21:33N 35°59' W 005°30'8 8.0
2014-Nov-24 20:33N 36°02' W 005°21'  
2014-Nov-22 11:33N 37°32' E 006°21'1510.6
2014-Nov-22 10:10N 37°34' E 006°40'4110.8
2014-Nov-22 06:20N 37°40' E 007°31'8710.7
2014-Nov-21 22:11N 37°56' E 009°20'1615.9
2014-Nov-21 21:10N 37°57' E 009°40'14510.3
2014-Nov-21 07:07N 38°15' E 012°43'610.9
2014-Nov-21 06:33N 38°16' E 012°51'1111.0
2014-Nov-21 05:33N 38°16' E 013°05'1110.9
2014-Nov-21 04:33N 38°17' E 013°19'1110.7
2014-Nov-21 03:33N 38°17' E 013°32'1110.6
2014-Nov-21 02:33N 38°18' E 013°46'1110.7
2014-Nov-21 01:33N 38°18' E 013°60'7010.8
2014-Nov-20 19:08N 38°20' E 015°29'810.7
2014-Nov-20 18:21N 38°20' E 015°39'5 6.4
2014-Nov-20 17:32N 38°14' E 015°38'10 9.9
2014-Nov-20 16:32N 38°05' E 015°36'  
2014-Nov-16 08:11N 37°50' E 015°56'9 9.3
2014-Nov-16 07:10N 37°50' E 015°44'  
Track history (hours):
 
Tides and Currents Weather Stations Pressure Air Temp Water Temp Dewpoint Dewpoint Depression Visibility Wind Speed Wind Dir Waves Ship Positions

Flinter Rose

Last reported at 2014-Nov-25 22:32 UTC. Time now 2014-Nov-26 08:55 UTC.
Position N 37°44' W 009°33'.

Length 101 m; draft 6.5 m.

Type: Cargo ship. MMSI: 246227000.

Date/timePositionNaut miles runAvg speedWind from/ knotsBaromVisibWave heightAir tempDewpointWater temp
2014-Nov-25 22:32N 37°44' W 009°33'1010.4
2014-Nov-25 21:33N 37°34' W 009°30'211 9.0
2014-Nov-24 22:08N 35°58' W 005°36'5 8.5
2014-Nov-24 21:33N 35°59' W 005°30'8 8.0
2014-Nov-24 20:33N 36°02' W 005°21'  
2014-Nov-22 11:33N 37°32' E 006°21'1510.6
2014-Nov-22 10:10N 37°34' E 006°40'4110.8
2014-Nov-22 06:20N 37°40' E 007°31'8710.7
2014-Nov-21 22:11N 37°56' E 009°20'1615.9
2014-Nov-21 21:10N 37°57' E 009°40'14510.3
2014-Nov-21 07:07N 38°15' E 012°43'610.9
2014-Nov-21 06:33N 38°16' E 012°51'1111.0
2014-Nov-21 05:33N 38°16' E 013°05'1110.9
2014-Nov-21 04:33N 38°17' E 013°19'1110.7
2014-Nov-21 03:33N 38°17' E 013°32'1110.6
2014-Nov-21 02:33N 38°18' E 013°46'1110.7
2014-Nov-21 01:33N 38°18' E 013°60'7010.8
2014-Nov-20 19:08N 38°20' E 015°29'810.7
2014-Nov-20 18:21N 38°20' E 015°39'5 6.4
2014-Nov-20 17:32N 38°14' E 015°38'10 9.9
2014-Nov-20 16:32N 38°05' E 015°36'  
2014-Nov-16 08:11N 37°50' E 015°56'9 9.3
2014-Nov-16 07:10N 37°50' E 015°44'  

Dump ship's entire track history